Aviation Digital Data Service (ADDS)

Output produced by METARs form (1337 UTC 11 December 2018)
found at http://www.aviationweather.gov/metar/data/
 
METAR text: KSUU 111323Z 00000KT 3/8SM R21L/2200V3000FT FG CLR 02/01 A3019 RMK AO2A VIS 3/8V1 5/8 SLP231 $
Conditions at: KSUU (TRAVIS AFB/FAIRF, CA, US) observed 1323 UTC 11 December 2018
Temperature: 2.0°C (36°F)
Dewpoint: 1.0°C (34°F) [RH = 93%]
Pressure (altimeter): 30.19 inches Hg (1022.4 mb)
[Sea-level pressure: 1023.1 mb]
Winds: calm
Visibility: 0.38 miles (0.61 km)
Ceiling: at least 12,000 feet AGL
Clouds: sky clear below 12,000 feet AGL
Weather: FG  (fog)
SOME DATA ABOVE MAY BE INACCURATE!!!
"$" is an indication the sensor requires maintenance

METAR text: KSUU 111318Z 00000KT 1 3/8SM BR CLR 02/01 A3019 RMK AO2A VIS 1 1/8V1 3/4 VIS 1/2 RWY03R VIS 3/8 RWY03R/21L VIS 1/2 RWY21R SLP231 $
Conditions at: KSUU (TRAVIS AFB/FAIRF, CA, US) observed 1318 UTC 11 December 2018
Temperature: 2.0°C (36°F)
Dewpoint: 1.0°C (34°F) [RH = 93%]
Pressure (altimeter): 30.19 inches Hg (1022.4 mb)
[Sea-level pressure: 1023.1 mb]
Winds: calm
Visibility: 1.38 miles (2.22 km)
Ceiling: at least 12,000 feet AGL
Clouds: sky clear below 12,000 feet AGL
Weather: BR  (mist)
SOME DATA ABOVE MAY BE INACCURATE!!!
"$" is an indication the sensor requires maintenance

METAR text: KSUU 111313Z 00000KT 1 3/4SM BR CLR 02/01 A3019 RMK AO2A VIS 7/8V1 3/4 VIS 1/2 RWY03R VIS 1/4 RWY03R/21L VIS 1/2 RWY21R SLP231 $
Conditions at: KSUU (TRAVIS AFB/FAIRF, CA, US) observed 1313 UTC 11 December 2018
Temperature: 2.0°C (36°F)
Dewpoint: 1.0°C (34°F) [RH = 93%]
Pressure (altimeter): 30.19 inches Hg (1022.4 mb)
[Sea-level pressure: 1023.1 mb]
Winds: calm
Visibility: 1.75 miles (2.82 km)
Ceiling: at least 12,000 feet AGL
Clouds: sky clear below 12,000 feet AGL
Weather: BR  (mist)
SOME DATA ABOVE MAY BE INACCURATE!!!
"$" is an indication the sensor requires maintenance

METAR text: KSUU 111308Z 00000KT 7/8SM R21L/3000VP6000FT BR CLR 02/01 A3019 RMK AO2A VIS 1/4 RWY03R/21L SLP231 $
Conditions at: KSUU (TRAVIS AFB/FAIRF, CA, US) observed 1308 UTC 11 December 2018
Temperature: 2.0°C (36°F)
Dewpoint: 1.0°C (34°F) [RH = 93%]
Pressure (altimeter): 30.19 inches Hg (1022.4 mb)
[Sea-level pressure: 1023.1 mb]
Winds: calm
Visibility: 0.88 miles (1.42 km)
Ceiling: at least 12,000 feet AGL
Clouds: sky clear below 12,000 feet AGL
Weather: BR  (mist)
SOME DATA ABOVE MAY BE INACCURATE!!!
"$" is an indication the sensor requires maintenance

METAR text: KSUU 111303Z 00000KT 1SM R21L/4500VP6000FT BR CLR 02/01 A3019 RMK AO2A VIS 1/2 RWY03L VIS 3/8 RWY03R VIS 3/8 RWY21R SLP231 $
Conditions at: KSUU (TRAVIS AFB/FAIRF, CA, US) observed 1303 UTC 11 December 2018
Temperature: 2.0°C (36°F)
Dewpoint: 1.0°C (34°F) [RH = 93%]
Pressure (altimeter): 30.19 inches Hg (1022.4 mb)
[Sea-level pressure: 1023.1 mb]
Winds: calm
Visibility: 1.00 miles (1.61 km)
Ceiling: at least 12,000 feet AGL
Clouds: sky clear below 12,000 feet AGL
Weather: BR  (mist)
SOME DATA ABOVE MAY BE INACCURATE!!!
"$" is an indication the sensor requires maintenance

METAR text: KSUU 111258Z 00000KT 7/8SM R21L/4500VP6000FT BR CLR 02/01 A3018 RMK AO2A VIS 3/8 RWY03L VIS 1/4 RWY03R VIS 1/4 RWY21R SLP227 T00210011 $
Conditions at: KSUU (TRAVIS AFB/FAIRF, CA, US) observed 1258 UTC 11 December 2018
Temperature: 2.1°C (36°F)
Dewpoint: 1.1°C (34°F) [RH = 93%]
Pressure (altimeter): 30.18 inches Hg (1022.1 mb)
[Sea-level pressure: 1022.7 mb]
Winds: calm
Visibility: 0.88 miles (1.42 km)
Ceiling: at least 12,000 feet AGL
Clouds: sky clear below 12,000 feet AGL
Weather: BR  (mist)
SOME DATA ABOVE MAY BE INACCURATE!!!
"$" is an indication the sensor requires maintenance

METAR text: KSUU 111249Z 00000KT 7/8SM R21L/4000V5000FT BR CLR 02/01 A3018 RMK AO2A VIS 7/8V4 VIS 3/8 RWY03R VIS 3/8 RWY03R/21L VIS 3/8 RWY21R SLP227 $
Conditions at: KSUU (TRAVIS AFB/FAIRF, CA, US) observed 1249 UTC 11 December 2018
Temperature: 2.0°C (36°F)
Dewpoint: 1.0°C (34°F) [RH = 93%]
Pressure (altimeter): 30.18 inches Hg (1022.1 mb)
[Sea-level pressure: 1022.7 mb]
Winds: calm
Visibility: 0.88 miles (1.42 km)
Ceiling: at least 12,000 feet AGL
Clouds: sky clear below 12,000 feet AGL
Weather: BR  (mist)
SOME DATA ABOVE MAY BE INACCURATE!!!
"$" is an indication the sensor requires maintenance

METAR text: KSUU 111244Z 22003KT 2 1/2SM BR CLR 03/02 A3018 RMK AO2A VIS 2 1/4V4 VIS 3/8 RWY03R VIS 3/8 RWY03R/21L VIS 3/8 RWY21R SLP227 $
Conditions at: KSUU (TRAVIS AFB/FAIRF, CA, US) observed 1244 UTC 11 December 2018
Temperature: 3.0°C (37°F)
Dewpoint: 2.0°C (36°F) [RH = 93%]
Pressure (altimeter): 30.18 inches Hg (1022.1 mb)
[Sea-level pressure: 1022.7 mb]
Winds: from the SW (220 degrees) at 3 MPH (3 knots; 1.5 m/s)
Visibility: 2.50 miles (4.02 km)
Ceiling: at least 12,000 feet AGL
Clouds: sky clear below 12,000 feet AGL
Weather: BR  (mist)
SOME DATA ABOVE MAY BE INACCURATE!!!
"$" is an indication the sensor requires maintenance

METAR text: KSUU 111239Z 00000KT 4SM BR CLR 02/01 A3018 RMK AO2A VIS 1 1/8 RWY03R VIS 3/8 RWY03R/21L VIS 1 1/8 RWY21R SLP227 $
Conditions at: KSUU (TRAVIS AFB/FAIRF, CA, US) observed 1239 UTC 11 December 2018
Temperature: 2.0°C (36°F)
Dewpoint: 1.0°C (34°F) [RH = 93%]
Pressure (altimeter): 30.18 inches Hg (1022.1 mb)
[Sea-level pressure: 1022.7 mb]
Winds: calm
Visibility: 4 miles ( 6 km)
Ceiling: at least 12,000 feet AGL
Clouds: sky clear below 12,000 feet AGL
Weather: BR  (mist)
SOME DATA ABOVE MAY BE INACCURATE!!!
"$" is an indication the sensor requires maintenance

Forecast for: AMD
Text: TAF AMD KSUU 111154Z 1111/1217 VRB06KT 0800 FG SKC QNH3013INS
Forecast period: 1100 to 1600 UTC 11 December 2018
Forecast type: FROM: standard forecast or significant change
Winds: variable direction winds at 7 MPH (6 knots; 3.1 m/s)
Visibility: 0.50 miles (0.80 km)
Clouds: clear skies
Weather: FG  (fog)
Text: TEMPO 1111/1116 3200 BR
Forecast period: 1100 to 1600 UTC 11 December 2018
Forecast type: TEMPORARY: The following changes expected for less than half the time period
Visibility: 1.99 miles (3.20 km)
Ceiling: unknown
Clouds: missing
Weather: BR  (mist)
Text: BECMG 1116/1117 34009KT 9999 NSW SKC QNH3017INS
Forecast period: 1600 to 2200 UTC 11 December 2018
Forecast type: BECOMING: Conditions expected to become as follows by 1700 UTC 11 December 2018
Winds: from the NNW (340 degrees) at 10 MPH (9 knots; 4.6 m/s)
Visibility: 6 or more miles 10+ km)
Clouds: clear skies
Weather: NSW  (no significant weather)
Text: BECMG 1122/1123 24009KT 9999 SKC QNH3015INS
Forecast period: 2200 UTC 11 December 2018 to 0700 UTC 12 December 2018
Forecast type: BECOMING: Conditions expected to become as follows by 2300 UTC 11 December 2018
Winds: from the WSW (240 degrees) at 10 MPH (9 knots; 4.6 m/s)
Visibility: 6 or more miles 10+ km)
Clouds: clear skies
Weather: NSW  (no significant weather)
Text: BECMG 1207/1208 26009KT 9999 FEW040 SCT100 QNH3011INS
Forecast period: 0700 to 1300 UTC 12 December 2018
Forecast type: BECOMING: Conditions expected to become as follows by 0800 UTC 12 December 2018
Winds: from the W (260 degrees) at 10 MPH (9 knots; 4.6 m/s)
Visibility: 6 or more miles 10+ km)
Ceiling: at least 12,000 feet AGL
Clouds: few clouds at 4000 feet AGL
scattered clouds at 10000 feet AGL
Weather: NSW  (no significant weather)
Text: BECMG 1213/1214 01010G15KT 9999 SCT060 QNH3014INS TX14/1123Z TN03/1114Z
Forecast period: 1300 to 1700 UTC 12 December 2018
Forecast type: BECOMING: Conditions expected to become as follows by 1400 UTC 12 December 2018
Winds: from the N (10 degrees) at 12 MPH (10 knots; 5.1 m/s)
gusting to 17 MPH (15 knots; 7.7 m/s)
Visibility: 6 or more miles 10+ km)
Ceiling: at least 12,000 feet AGL
Clouds: scattered clouds at 6000 feet AGL
Weather: NSW  (no significant weather)